createdAt,value
2023-04-16T00:02:30.749Z,93.10
2023-04-16T00:05:33.237Z,93.48
2023-04-16T00:08:35.973Z,93.82
2023-04-16T00:11:38.291Z,93.33
2023-04-16T00:14:40.684Z,93.83
2023-04-16T00:17:43.038Z,93.92
2023-04-16T00:20:45.368Z,94.03
2023-04-16T00:23:47.721Z,94.12
2023-04-16T00:26:49.956Z,95.01
2023-04-16T00:29:52.221Z,95.47
2023-04-16T00:32:54.523Z,94.84
2023-04-16T00:35:57.164Z,95.21
2023-04-16T00:38:59.473Z,95.72
2023-04-16T00:42:01.981Z,95.32
2023-04-16T00:45:05.670Z,95.33
2023-04-16T00:48:08.008Z,94.84
2023-04-16T00:51:10.959Z,95.96
2023-04-16T00:54:13.263Z,95.54
2023-04-16T00:57:15.740Z,96.37
2023-04-16T01:00:18.140Z,95.72
2023-04-16T01:03:20.753Z,95.69
2023-04-16T01:06:23.961Z,95.99
2023-04-16T01:09:26.420Z,95.42
2023-04-16T01:12:28.667Z,95.40
2023-04-16T01:15:30.931Z,95.92
2023-04-16T01:18:33.432Z,96.32
2023-04-16T01:21:36.010Z,96.16
2023-04-16T01:24:38.515Z,96.10
2023-04-16T01:27:41.031Z,95.94
2023-04-16T01:30:43.780Z,95.74
2023-04-16T01:34:12.442Z,96.16
2023-04-16T01:37:14.941Z,95.77
2023-04-16T01:40:17.886Z,96.25
2023-04-16T01:43:20.181Z,95.97
2023-04-16T01:46:28.168Z,96.37
2023-04-16T01:49:30.830Z,95.66
2023-04-16T01:52:33.124Z,96.58
2023-04-16T01:55:35.662Z,95.57
2023-04-16T01:58:38.559Z,95.81
2023-04-16T02:01:42.144Z,95.96
2023-04-16T02:04:45.838Z,96.21
2023-04-16T02:07:48.128Z,96.08
2023-04-16T02:10:51.807Z,95.90
2023-04-16T02:13:54.100Z,95.71
2023-04-16T02:16:56.764Z,95.78
2023-04-16T02:20:18.521Z,95.83
2023-04-16T02:23:28.103Z,95.98
2023-04-16T02:26:32.113Z,95.66
2023-04-16T02:29:40.739Z,95.52
2023-04-16T02:32:49.858Z,95.26
2023-04-16T02:35:53.238Z,96.03
2023-04-16T02:38:55.752Z,96.02
2023-04-16T02:41:59.481Z,96.04
2023-04-16T02:45:02.266Z,95.61
2023-04-16T02:48:04.811Z,95.49
2023-04-16T02:51:07.219Z,95.31
2023-04-16T02:54:09.728Z,96.58
2023-04-16T02:57:11.990Z,96.30
2023-04-16T03:00:14.467Z,96.74
2023-04-16T03:03:17.018Z,95.77
2023-04-16T03:06:19.400Z,96.29
2023-04-16T03:09:21.863Z,96.17
2023-04-16T03:12:24.191Z,95.93
2023-04-16T03:15:29.602Z,96.02
2023-04-16T03:18:32.143Z,96.16
2023-04-16T03:21:34.481Z,96.31
2023-04-16T03:24:37.731Z,95.96
2023-04-16T03:27:40.124Z,96.45
2023-04-16T03:30:42.480Z,96.43
2023-04-16T03:33:45.065Z,96.61
2023-04-16T03:36:49.652Z,96.61
2023-04-16T03:39:52.681Z,97.04
2023-04-16T03:42:54.931Z,97.31
2023-04-16T03:45:57.382Z,97.10
2023-04-16T03:49:00.537Z,96.81
2023-04-16T03:52:03.933Z,96.72
2023-04-16T03:55:06.933Z,97.42
2023-04-16T03:58:10.071Z,97.30
2023-04-16T04:01:12.420Z,97.15
2023-04-16T04:04:17.820Z,97.21
2023-04-16T04:07:20.264Z,96.60
2023-04-16T04:10:22.737Z,96.55
2023-04-16T04:13:25.194Z,96.77
2023-04-16T04:16:28.529Z,96.89
2023-04-16T04:19:30.863Z,95.99
2023-04-16T04:22:33.525Z,96.06
2023-04-16T04:25:36.078Z,95.72
2023-04-16T04:28:38.406Z,95.52
2023-04-16T04:31:41.119Z,95.75
2023-04-16T04:34:43.514Z,94.98
2023-04-16T04:37:46.230Z,95.26
2023-04-16T04:40:53.143Z,94.23
2023-04-16T04:43:56.929Z,92.70
2023-04-16T04:47:00.896Z,92.46
2023-04-16T04:50:03.512Z,91.69
2023-04-16T04:53:10.354Z,91.99
2023-04-16T04:56:13.551Z,91.70
2023-04-16T04:59:16.464Z,90.79
2023-04-16T05:02:19.815Z,91.92
2023-04-16T05:05:22.385Z,92.26
2023-04-16T05:08:24.733Z,92.34
2023-04-16T05:11:27.217Z,91.49
2023-04-16T05:14:29.527Z,91.65
2023-04-16T05:17:31.809Z,92.15
2023-04-16T05:20:34.273Z,93.03
2023-04-16T05:23:36.619Z,92.59
2023-04-16T05:26:38.916Z,91.71
2023-04-16T05:29:41.417Z,91.99
2023-04-16T05:32:43.772Z,91.53
2023-04-16T05:35:46.203Z,91.30
2023-04-16T05:38:51.418Z,90.97
2023-04-16T05:41:53.724Z,91.34
2023-04-16T05:44:59.059Z,89.95
2023-04-16T05:48:01.515Z,90.40
2023-04-16T05:51:04.197Z,90.43
2023-04-16T05:54:06.587Z,90.63
2023-04-16T05:57:08.843Z,90.39
2023-04-16T06:00:11.362Z,90.14
2023-04-16T06:03:16.285Z,89.41
2023-04-16T06:06:18.701Z,88.91
2023-04-16T06:09:20.974Z,88.76
2023-04-16T06:12:23.249Z,89.02
2023-04-16T06:15:25.953Z,88.54
2023-04-16T06:18:28.287Z,87.81
2023-04-16T06:21:31.848Z,87.94
2023-04-16T06:24:34.253Z,87.90
2023-04-16T06:27:37.430Z,87.92
2023-04-16T06:30:41.157Z,87.57
2023-04-16T06:33:44.496Z,86.16
2023-04-16T06:36:46.860Z,85.50
2023-04-16T06:39:49.047Z,83.79
2023-04-16T06:42:54.639Z,83.30
2023-04-16T06:45:56.925Z,82.59
2023-04-16T06:48:59.133Z,81.02
2023-04-16T06:52:03.325Z,80.98
2023-04-16T06:55:09.867Z,80.03
2023-04-16T06:58:12.177Z,78.36
2023-04-16T07:01:15.662Z,76.04
2023-04-16T07:04:18.319Z,75.93
2023-04-16T07:07:20.748Z,74.22
2023-04-16T07:10:23.330Z,74.33
2023-04-16T07:13:26.297Z,73.88
2023-04-16T07:16:28.631Z,73.60
2023-04-16T07:19:32.835Z,73.41
2023-04-16T07:22:35.400Z,73.34
2023-04-16T07:25:37.722Z,73.57
2023-04-16T07:28:39.977Z,72.87
2023-04-16T07:31:42.388Z,71.94
2023-04-16T07:34:44.732Z,70.59
2023-04-16T07:37:46.997Z,69.00
2023-04-16T07:40:49.292Z,67.70
2023-04-16T07:43:51.556Z,69.66
2023-04-16T07:46:54.005Z,71.66
2023-04-16T07:49:56.384Z,73.64
2023-04-16T07:52:58.708Z,72.33
2023-04-16T07:56:01.036Z,70.93
2023-04-16T07:59:18.501Z,71.47
2023-04-16T08:02:24.049Z,67.82
2023-04-16T08:05:26.444Z,65.00
2023-04-16T08:08:29.790Z,64.85
2023-04-16T08:11:32.210Z,65.75
2023-04-16T08:14:34.560Z,66.94
2023-04-16T08:17:37.885Z,67.86
2023-04-16T08:20:40.209Z,67.50
2023-04-16T08:23:42.542Z,66.05
2023-04-16T08:26:44.865Z,63.27
2023-04-16T08:29:48.532Z,62.39
2023-04-16T08:32:50.982Z,61.76
2023-04-16T08:35:53.349Z,61.03
2023-04-16T08:38:56.885Z,61.69
2023-04-16T08:42:01.736Z,61.09
2023-04-16T08:45:13.353Z,62.16
2023-04-16T08:48:15.862Z,61.19
2023-04-16T08:51:21.185Z,60.21
2023-04-16T08:54:56.546Z,59.00
2023-04-16T08:58:01.479Z,57.54
2023-04-16T09:01:04.251Z,57.07
2023-04-16T09:04:07.355Z,56.78
2023-04-16T09:07:10.923Z,56.38
2023-04-16T09:10:15.446Z,56.27
2023-04-16T09:13:20.761Z,56.77
2023-04-16T09:16:25.004Z,57.17
2023-04-16T09:19:27.645Z,55.71
2023-04-16T09:22:29.902Z,56.28
2023-04-16T09:25:35.788Z,57.71
2023-04-16T09:28:42.752Z,57.39
2023-04-16T09:32:02.884Z,59.00
2023-04-16T09:35:05.692Z,61.73
2023-04-16T09:38:07.992Z,60.20
2023-04-16T09:41:10.418Z,59.75
2023-04-16T09:44:12.724Z,59.66
2023-04-16T09:47:15.025Z,60.00
2023-04-16T09:50:19.565Z,60.77
2023-04-16T09:53:29.764Z,59.42
2023-04-16T09:56:32.011Z,59.41
2023-04-16T09:59:35.872Z,60.05
2023-04-16T10:02:43.423Z,58.98
2023-04-16T10:05:46.012Z,59.65
2023-04-16T10:08:50.246Z,59.45
2023-04-16T10:11:52.922Z,58.02
2023-04-16T10:14:55.216Z,57.02
2023-04-16T10:17:58.874Z,55.96
2023-04-16T10:21:02.061Z,56.21
2023-04-16T10:24:04.762Z,56.20
2023-04-16T10:27:07.123Z,56.23
2023-04-16T10:30:11.164Z,54.84
2023-04-16T10:33:14.346Z,55.84
2023-04-16T10:36:24.581Z,57.03
2023-04-16T10:39:29.533Z,55.59
2023-04-16T10:42:31.939Z,54.67
2023-04-16T10:45:39.967Z,53.98
2023-04-16T10:48:49.665Z,53.67
2023-04-16T10:52:02.495Z,53.02
2023-04-16T10:55:05.242Z,53.02
2023-04-16T10:58:27.996Z,52.62
2023-04-16T11:01:32.546Z,52.99
2023-04-16T11:04:37.629Z,52.71
2023-04-16T11:07:49.606Z,52.29
2023-04-16T11:10:52.489Z,51.40
2023-04-16T11:13:57.578Z,51.16
2023-04-16T11:17:03.791Z,51.52
2023-04-16T11:20:17.465Z,50.78
2023-04-16T11:23:22.648Z,51.18
2023-04-16T11:26:27.551Z,50.73
2023-04-16T11:29:29.870Z,49.94
2023-04-16T11:32:33.910Z,50.10
2023-04-16T11:35:36.420Z,50.04
2023-04-16T11:38:41.099Z,50.76
2023-04-16T11:41:52.345Z,49.70
2023-04-16T11:44:56.379Z,50.07
2023-04-16T11:47:58.750Z,51.02
2023-04-16T11:51:01.138Z,51.14
2023-04-16T11:54:03.528Z,49.90
2023-04-16T11:57:06.276Z,50.07
2023-04-16T12:00:13.007Z,49.36
2023-04-16T12:03:15.669Z,49.01
2023-04-16T12:06:18.162Z,48.40
2023-04-16T12:09:27.471Z,48.46
2023-04-16T12:12:32.267Z,48.38
2023-04-16T12:15:51.995Z,48.95
2023-04-16T12:19:04.998Z,48.46
2023-04-16T12:22:07.244Z,47.45
2023-04-16T12:25:15.144Z,47.02
2023-04-16T12:28:34.771Z,47.02
2023-04-16T12:31:38.310Z,47.44
2023-04-16T12:34:51.387Z,49.07
2023-04-16T12:37:53.743Z,48.28
2023-04-16T12:40:57.745Z,47.90
2023-04-16T12:44:13.002Z,48.66
2023-04-16T12:47:15.395Z,48.20
2023-04-16T12:50:18.441Z,47.81
2023-04-16T12:53:20.903Z,47.86
2023-04-16T12:56:23.327Z,47.77
2023-04-16T12:59:25.855Z,47.72
2023-04-16T13:02:28.458Z,47.48
2023-04-16T13:05:30.906Z,47.05
2023-04-16T13:08:33.340Z,47.72
2023-04-16T13:11:35.800Z,48.73
2023-04-16T13:14:38.710Z,48.06
2023-04-16T13:17:40.974Z,47.04
2023-04-16T13:20:43.881Z,46.65
2023-04-16T13:23:46.245Z,46.63
2023-04-16T13:26:48.549Z,47.36
2023-04-16T13:29:50.970Z,47.53
2023-04-16T13:32:53.372Z,47.53
2023-04-16T13:35:55.875Z,47.29
2023-04-16T13:38:59.384Z,47.87
2023-04-16T13:42:01.961Z,47.21
2023-04-16T13:45:04.475Z,47.33
2023-04-16T13:48:06.830Z,47.19
2023-04-16T13:51:09.113Z,47.30
2023-04-16T13:54:11.469Z,48.57
2023-04-16T13:57:13.890Z,49.24
2023-04-16T14:00:16.978Z,48.68
2023-04-16T14:03:19.359Z,48.29
2023-04-16T14:06:21.772Z,47.05
2023-04-16T14:09:24.477Z,47.29
2023-04-16T14:12:27.742Z,46.44
2023-04-16T14:15:30.180Z,45.98
2023-04-16T14:18:32.487Z,46.58
2023-04-16T14:21:34.917Z,47.00
2023-04-16T14:24:37.182Z,46.94
2023-04-16T14:27:39.723Z,45.94
2023-04-16T14:30:41.961Z,46.38
2023-04-16T14:33:44.287Z,46.45
2023-04-16T14:36:46.654Z,46.86
2023-04-16T14:39:49.152Z,44.90
2023-04-16T14:42:51.474Z,45.79
2023-04-16T14:45:53.746Z,45.47
2023-04-16T14:48:56.179Z,44.20
2023-04-16T14:51:58.468Z,44.28
2023-04-16T14:55:00.888Z,44.10
2023-04-16T14:58:03.230Z,45.35
2023-04-16T15:01:05.578Z,45.13
